sensor_id;sensor_type;location;lat;lon;timestamp;temperature;humidity
53368;DHT22;39271;45.618;20.024;2022-09-01T00:00:59;563.40;2432.00
53368;DHT22;39271;45.618;20.024;2022-09-01T00:03:24;563.50;2432.00
53368;DHT22;39271;45.618;20.024;2022-09-01T00:05:51;563.40;2432.00
53368;DHT22;39271;45.618;20.024;2022-09-01T00:08:20;563.50;2432.00
53368;DHT22;39271;45.618;20.024;2022-09-01T00:10:46;563.40;2432.00
53368;DHT22;39271;45.618;20.024;2022-09-01T00:13:12;563.50;2432.00
53368;DHT22;39271;45.618;20.024;2022-09-01T00:15:37;563.50;2432.00
53368;DHT22;39271;45.618;20.024;2022-09-01T00:18:03;563.50;2432.00
53368;DHT22;39271;45.618;20.024;2022-09-01T00:20:29;563.50;2432.00
53368;DHT22;39271;45.618;20.024;2022-09-01T00:22:54;563.60;2432.00
53368;DHT22;39271;45.618;20.024;2022-09-01T00:25:20;563.60;2432.00
53368;DHT22;39271;45.618;20.024;2022-09-01T00:27:47;563.60;2432.00
53368;DHT22;39271;45.618;20.024;2022-09-01T00:30:14;563.50;2432.00
53368;DHT22;39271;45.618;20.024;2022-09-01T00:32:39;563.60;2432.00
53368;DHT22;39271;45.618;20.024;2022-09-01T00:35:11;563.60;2432.00
53368;DHT22;39271;45.618;20.024;2022-09-01T00:37:37;563.50;2432.00
53368;DHT22;39271;45.618;20.024;2022-09-01T00:40:03;563.60;2432.00
53368;DHT22;39271;45.618;20.024;2022-09-01T00:42:28;563.80;2432.00
53368;DHT22;39271;45.618;20.024;2022-09-01T00:44:55;563.50;2432.00
53368;DHT22;39271;45.618;20.024;2022-09-01T00:47:20;563.50;2432.00
53368;DHT22;39271;45.618;20.024;2022-09-01T00:49:46;563.50;2432.00
53368;DHT22;39271;45.618;20.024;2022-09-01T00:52:15;563.50;2432.00
53368;DHT22;39271;45.618;20.024;2022-09-01T00:54:45;563.40;2432.00
53368;DHT22;39271;45.618;20.024;2022-09-01T00:57:12;563.40;2432.00
53368;DHT22;39271;45.618;20.024;2022-09-01T00:59:42;563.40;2432.00
53368;DHT22;39271;45.618;20.024;2022-09-01T01:02:10;563.40;2432.00
53368;DHT22;39271;45.618;20.024;2022-09-01T01:04:35;563.30;2432.00
53368;DHT22;39271;45.618;20.024;2022-09-01T01:07:01;563.20;2432.00
53368;DHT22;39271;45.618;20.024;2022-09-01T01:09:32;538.50;2406.40
53368;DHT22;39271;45.618;20.024;2022-09-01T01:11:58;563.20;2432.00
53368;DHT22;39271;45.618;20.024;2022-09-01T01:14:25;538.50;2406.40
53368;DHT22;39271;45.618;20.024;2022-09-01T01:16:53;538.40;2406.40
53368;DHT22;39271;45.618;20.024;2022-09-01T01:22:15;538.30;2406.40
53368;DHT22;39271;45.618;20.024;2022-09-01T01:25:02;538.30;2406.40
53368;DHT22;39271;45.618;20.024;2022-09-01T01:27:32;538.50;2406.40
53368;DHT22;39271;45.618;20.024;2022-09-01T01:30:03;538.50;2406.40
53368;DHT22;39271;45.618;20.024;2022-09-01T01:32:29;538.40;2406.40
53368;DHT22;39271;45.618;20.024;2022-09-01T01:34:55;538.50;2406.40
53368;DHT22;39271;45.618;20.024;2022-09-01T01:37:21;538.40;2406.40
53368;DHT22;39271;45.618;20.024;2022-09-01T01:39:49;538.30;2406.40
53368;DHT22;39271;45.618;20.024;2022-09-01T01:42:14;538.40;2380.80
53368;DHT22;39271;45.618;20.024;2022-09-01T01:44:41;538.40;2329.60
53368;DHT22;39271;45.618;20.024;2022-09-01T01:47:08;538.40;2329.60
53368;DHT22;39271;45.618;20.024;2022-09-01T01:49:37;538.50;2304.00
53368;DHT22;39271;45.618;20.024;2022-09-01T01:52:04;538.40;2252.80
53368;DHT22;39271;45.618;20.024;2022-09-01T01:54:30;538.30;2252.80
53368;DHT22;39271;45.618;20.024;2022-09-01T01:57:00;538.20;2252.80
53368;DHT22;39271;45.618;20.024;2022-09-01T01:59:28;538.30;2227.20
53368;DHT22;39271;45.618;20.024;2022-09-01T02:01:54;538.30;2176.00
53368;DHT22;39271;45.618;20.024;2022-09-01T02:04:20;538.30;2150.40
53368;DHT22;39271;45.618;20.024;2022-09-01T02:06:47;538.30;2150.40
53368;DHT22;39271;45.618;20.024;2022-09-01T02:09:14;538.30;2150.40
53368;DHT22;39271;45.618;20.024;2022-09-01T02:11:40;538.40;2099.20
53368;DHT22;39271;45.618;20.024;2022-09-01T02:14:06;538.20;2073.60
53368;DHT22;39271;45.618;20.024;2022-09-01T02:16:32;538.10;2099.20
53368;DHT22;39271;45.618;20.024;2022-09-01T02:18:58;538.00;2124.80
53368;DHT22;39271;45.618;20.024;2022-09-01T02:21:25;538.00;2099.20
53368;DHT22;39271;45.618;20.024;2022-09-01T02:23:52;537.90;2073.60
53368;DHT22;39271;45.618;20.024;2022-09-01T02:26:28;537.90;2073.60
53368;DHT22;39271;45.618;20.024;2022-09-01T02:28:54;537.70;2073.60
53368;DHT22;39271;45.618;20.024;2022-09-01T02:31:20;537.70;2073.60
53368;DHT22;39271;45.618;20.024;2022-09-01T02:33:47;537.80;2073.60
53368;DHT22;39271;45.618;20.024;2022-09-01T02:36:14;537.90;2048.00
53368;DHT22;39271;45.618;20.024;2022-09-01T02:38:41;537.80;2048.00
53368;DHT22;39271;45.618;20.024;2022-09-01T02:41:08;537.70;2048.00
53368;DHT22;39271;45.618;20.024;2022-09-01T02:43:34;537.70;2073.60
53368;DHT22;39271;45.618;20.024;2022-09-01T02:46:00;537.70;2048.00
53368;DHT22;39271;45.618;20.024;2022-09-01T02:48:30;537.70;2048.00
53368;DHT22;39271;45.618;20.024;2022-09-01T02:51:00;537.60;2048.00
53368;DHT22;39271;45.618;20.024;2022-09-01T02:53:27;512.90;2022.40
53368;DHT22;39271;45.618;20.024;2022-09-01T02:55:53;512.90;2048.00
53368;DHT22;39271;45.618;20.024;2022-09-01T02:58:22;512.90;2073.60
53368;DHT22;39271;45.618;20.024;2022-09-01T03:00:50;512.90;2073.60
53368;DHT22;39271;45.618;20.024;2022-09-01T03:03:16;537.60;2073.60
53368;DHT22;39271;45.618;20.024;2022-09-01T03:05:44;512.80;2048.00
53368;DHT22;39271;45.618;20.024;2022-09-01T03:08:10;512.70;2073.60
53368;DHT22;39271;45.618;20.024;2022-09-01T03:10:40;512.60;2048.00
53368;DHT22;39271;45.618;20.024;2022-09-01T03:13:07;512.60;2048.00
53368;DHT22;39271;45.618;20.024;2022-09-01T03:15:33;512.60;2048.00
53368;DHT22;39271;45.618;20.024;2022-09-01T03:18:01;512.60;2073.60
53368;DHT22;39271;45.618;20.024;2022-09-01T03:20:27;512.60;2073.60
53368;DHT22;39271;45.618;20.024;2022-09-01T03:22:55;512.60;2073.60
53368;DHT22;39271;45.618;20.024;2022-09-01T03:25:22;512.50;2048.00
53368;DHT22;39271;45.618;20.024;2022-09-01T03:27:50;512.60;2048.00
53368;DHT22;39271;45.618;20.024;2022-09-01T03:30:16;512.50;2048.00
53368;DHT22;39271;45.618;20.024;2022-09-01T03:32:41;512.50;1996.80
53368;DHT22;39271;45.618;20.024;2022-09-01T03:35:08;512.50;2048.00
53368;DHT22;39271;45.618;20.024;2022-09-01T03:37:34;512.40;1996.80
53368;DHT22;39271;45.618;20.024;2022-09-01T03:40:01;512.40;1996.80
53368;DHT22;39271;45.618;20.024;2022-09-01T03:42:28;512.40;1971.20
53368;DHT22;39271;45.618;20.024;2022-09-01T03:44:54;512.50;1971.20
53368;DHT22;39271;45.618;20.024;2022-09-01T03:47:21;512.40;1945.60
53368;DHT22;39271;45.618;20.024;2022-09-01T03:49:46;512.40;1945.60
53368;DHT22;39271;45.618;20.024;2022-09-01T03:52:14;512.40;1920.00
53368;DHT22;39271;45.618;20.024;2022-09-01T03:54:41;512.10;1920.00
53368;DHT22;39271;45.618;20.024;2022-09-01T03:57:08;512.30;1920.00
53368;DHT22;39271;45.618;20.024;2022-09-01T03:59:35;512.30;1945.60
53368;DHT22;39271;45.618;20.024;2022-09-01T04:04:28;512.60;1920.00
53368;DHT22;39271;45.618;20.024;2022-09-01T04:06:57;512.40;1945.60
53368;DHT22;39271;45.618;20.024;2022-09-01T04:09:24;512.30;1894.40
53368;DHT22;39271;45.618;20.024;2022-09-01T04:11:56;512.30;1920.00
53368;DHT22;39271;45.618;20.024;2022-09-01T04:14:28;512.20;1920.00
53368;DHT22;39271;45.618;20.024;2022-09-01T04:16:59;512.30;1894.40
53368;DHT22;39271;45.618;20.024;2022-09-01T04:19:43;512.30;1945.60
53368;DHT22;39271;45.618;20.024;2022-09-01T04:22:09;512.20;1894.40
53368;DHT22;39271;45.618;20.024;2022-09-01T04:24:38;512.10;1920.00
53368;DHT22;39271;45.618;20.024;2022-09-01T04:27:06;512.10;1920.00
53368;DHT22;39271;45.618;20.024;2022-09-01T04:29:34;512.20;1868.80
53368;DHT22;39271;45.618;20.024;2022-09-01T04:32:07;512.10;1894.40
53368;DHT22;39271;45.618;20.024;2022-09-01T04:34:34;512.10;1894.40
53368;DHT22;39271;45.618;20.024;2022-09-01T04:37:08;512.10;1920.00
53368;DHT22;39271;45.618;20.024;2022-09-01T04:39:34;512.10;1894.40
53368;DHT22;39271;45.618;20.024;2022-09-01T04:42:00;512.10;1894.40
53368;DHT22;39271;45.618;20.024;2022-09-01T04:44:30;512.10;1945.60
53368;DHT22;39271;45.618;20.024;2022-09-01T04:46:56;512.10;1894.40
53368;DHT22;39271;45.618;20.024;2022-09-01T04:49:22;512.10;1894.40
53368;DHT22;39271;45.618;20.024;2022-09-01T04:51:49;512.10;1920.00
53368;DHT22;39271;45.618;20.024;2022-09-01T04:54:15;512.00;1920.00
53368;DHT22;39271;45.618;20.024;2022-09-01T04:56:42;512.10;1945.60
53368;DHT22;39271;45.618;20.024;2022-09-01T04:59:08;512.00;1920.00
53368;DHT22;39271;45.618;20.024;2022-09-01T05:36:01;487.20;1996.80
53368;DHT22;39271;45.618;20.024;2022-09-01T05:38:29;487.00;1996.80
53368;DHT22;39271;45.618;20.024;2022-09-01T05:40:56;486.70;2048.00
53368;DHT22;39271;45.618;20.024;2022-09-01T05:43:22;486.60;2073.60
53368;DHT22;39271;45.618;20.024;2022-09-01T05:45:48;486.60;2048.00
53368;DHT22;39271;45.618;20.024;2022-09-01T05:48:13;486.50;2048.00
53368;DHT22;39271;45.618;20.024;2022-09-01T05:50:44;486.50;2048.00
53368;DHT22;39271;45.618;20.024;2022-09-01T05:53:11;486.40;2124.80
53368;DHT22;39271;45.618;20.024;2022-09-01T05:55:49;461.70;2201.60
53368;DHT22;39271;45.618;20.024;2022-09-01T05:58:21;461.60;2278.40
53368;DHT22;39271;45.618;20.024;2022-09-01T06:00:49;461.50;2329.60
53368;DHT22;39271;45.618;20.024;2022-09-01T06:03:16;461.50;2355.20
53368;DHT22;39271;45.618;20.024;2022-09-01T06:05:42;461.40;2380.80
53368;DHT22;39271;45.618;20.024;2022-09-01T06:08:12;461.30;2380.80
53368;DHT22;39271;45.618;20.024;2022-09-01T06:10:39;461.20;2380.80
53368;DHT22;39271;45.618;20.024;2022-09-01T06:13:06;461.10;2380.80
53368;DHT22;39271;45.618;20.024;2022-09-01T06:15:32;460.80;2380.80
53368;DHT22;39271;45.618;20.024;2022-09-01T06:17:58;436.10;2355.20
53368;DHT22;39271;45.618;20.024;2022-09-01T06:20:25;436.00;2355.20
53368;DHT22;39271;45.618;20.024;2022-09-01T06:22:50;436.00;2355.20
53368;DHT22;39271;45.618;20.024;2022-09-01T06:25:19;436.00;2355.20
53368;DHT22;39271;45.618;20.024;2022-09-01T06:27:45;435.90;2355.20
53368;DHT22;39271;45.618;20.024;2022-09-01T06:30:13;435.90;2355.20
53368;DHT22;39271;45.618;20.024;2022-09-01T06:32:42;435.90;2355.20
53368;DHT22;39271;45.618;20.024;2022-09-01T06:35:12;435.90;2355.20
53368;DHT22;39271;45.618;20.024;2022-09-01T06:37:40;435.80;2355.20
53368;DHT22;39271;45.618;20.024;2022-09-01T06:40:07;435.80;2355.20
53368;DHT22;39271;45.618;20.024;2022-09-01T06:42:42;435.90;2355.20
53368;DHT22;39271;45.618;20.024;2022-09-01T06:45:08;435.90;2355.20
53368;DHT22;39271;45.618;20.024;2022-09-01T06:47:35;435.90;2355.20
53368;DHT22;39271;45.618;20.024;2022-09-01T06:50:01;435.50;2355.20
53368;DHT22;39271;45.618;20.024;2022-09-01T06:52:26;436.00;2355.20
53368;DHT22;39271;45.618;20.024;2022-09-01T06:54:52;435.80;2355.20
53368;DHT22;39271;45.618;20.024;2022-09-01T06:57:21;435.80;2355.20
53368;DHT22;39271;45.618;20.024;2022-09-01T06:59:47;435.70;2355.20
53368;DHT22;39271;45.618;20.024;2022-09-01T07:02:14;435.60;2355.20
53368;DHT22;39271;45.618;20.024;2022-09-01T07:04:44;435.70;2355.20
53368;DHT22;39271;45.618;20.024;2022-09-01T07:07:10;435.70;2355.20
53368;DHT22;39271;45.618;20.024;2022-09-01T07:09:37;435.80;2355.20
53368;DHT22;39271;45.618;20.024;2022-09-01T07:12:04;435.80;2355.20
53368;DHT22;39271;45.618;20.024;2022-09-01T07:14:30;436.00;2355.20
53368;DHT22;39271;45.618;20.024;2022-09-01T07:16:56;436.00;2355.20
53368;DHT22;39271;45.618;20.024;2022-09-01T07:19:23;436.00;2355.20
53368;DHT22;39271;45.618;20.024;2022-09-01T07:21:50;460.80;2380.80
53368;DHT22;39271;45.618;20.024;2022-09-01T07:24:17;436.10;2355.20
53368;DHT22;39271;45.618;20.024;2022-09-01T07:26:43;435.90;2355.20
53368;DHT22;39271;45.618;20.024;2022-09-01T07:29:10;435.90;2355.20
53368;DHT22;39271;45.618;20.024;2022-09-01T07:31:36;436.00;2355.20
53368;DHT22;39271;45.618;20.024;2022-09-01T07:34:04;436.00;2355.20
53368;DHT22;39271;45.618;20.024;2022-09-01T07:36:30;436.10;2355.20
53368;DHT22;39271;45.618;20.024;2022-09-01T07:38:57;436.00;2355.20
53368;DHT22;39271;45.618;20.024;2022-09-01T07:41:24;436.00;2355.20
53368;DHT22;39271;45.618;20.024;2022-09-01T07:43:51;436.00;2355.20
53368;DHT22;39271;45.618;20.024;2022-09-01T07:46:19;435.90;2355.20
53368;DHT22;39271;45.618;20.024;2022-09-01T07:48:44;435.80;2355.20
53368;DHT22;39271;45.618;20.024;2022-09-01T07:51:12;435.80;2355.20
53368;DHT22;39271;45.618;20.024;2022-09-01T07:53:43;435.80;2355.20
53368;DHT22;39271;45.618;20.024;2022-09-01T07:56:10;435.40;2355.20
53368;DHT22;39271;45.618;20.024;2022-09-01T07:58:37;435.60;2355.20
53368;DHT22;39271;45.618;20.024;2022-09-01T08:01:08;435.60;2355.20
53368;DHT22;39271;45.618;20.024;2022-09-01T08:03:34;435.70;2355.20
53368;DHT22;39271;45.618;20.024;2022-09-01T08:12:07;435.90;2355.20
53368;DHT22;39271;45.618;20.024;2022-09-01T08:14:32;435.80;2355.20
53368;DHT22;39271;45.618;20.024;2022-09-01T08:16:58;435.80;2355.20
53368;DHT22;39271;45.618;20.024;2022-09-01T08:19:24;435.90;2355.20
53368;DHT22;39271;45.618;20.024;2022-09-01T08:21:50;435.90;2355.20
53368;DHT22;39271;45.618;20.024;2022-09-01T08:24:15;436.00;2355.20
53368;DHT22;39271;45.618;20.024;2022-09-01T08:26:41;436.10;2355.20
53368;DHT22;39271;45.618;20.024;2022-09-01T08:29:07;460.80;2380.80
53368;DHT22;39271;45.618;20.024;2022-09-01T08:31:32;460.90;2380.80
53368;DHT22;39271;45.618;20.024;2022-09-01T08:33:59;460.90;2380.80
53368;DHT22;39271;45.618;20.024;2022-09-01T08:36:25;461.10;2380.80
53368;DHT22;39271;45.618;20.024;2022-09-01T08:38:51;461.10;2380.80
53368;DHT22;39271;45.618;20.024;2022-09-01T08:44:04;461.30;2380.80
53368;DHT22;39271;45.618;20.024;2022-09-01T08:46:33;461.40;2380.80
53368;DHT22;39271;45.618;20.024;2022-09-01T08:49:03;461.50;2380.80
53368;DHT22;39271;45.618;20.024;2022-09-01T08:54:03;461.70;2380.80
53368;DHT22;39271;45.618;20.024;2022-09-01T08:56:30;461.60;2380.80
53368;DHT22;39271;45.618;20.024;2022-09-01T08:58:56;461.60;2380.80
53368;DHT22;39271;45.618;20.024;2022-09-01T09:06:42;461.60;2380.80
53368;DHT22;39271;45.618;20.024;2022-09-01T09:09:09;461.70;2380.80
53368;DHT22;39271;45.618;20.024;2022-09-01T09:16:57;461.60;2380.80
53368;DHT22;39271;45.618;20.024;2022-09-01T09:21:49;461.70;2380.80
53368;DHT22;39271;45.618;20.024;2022-09-01T09:24:18;461.70;2380.80
53368;DHT22;39271;45.618;20.024;2022-09-01T09:26:49;461.70;2380.80
53368;DHT22;39271;45.618;20.024;2022-09-01T09:29:14;486.40;2380.80
53368;DHT22;39271;45.618;20.024;2022-09-01T09:31:40;486.40;2380.80
53368;DHT22;39271;45.618;20.024;2022-09-01T09:36:41;486.40;2380.80
53368;DHT22;39271;45.618;20.024;2022-09-01T09:39:13;461.70;2380.80
53368;DHT22;39271;45.618;20.024;2022-09-01T09:41:41;461.60;2380.80
53368;DHT22;39271;45.618;20.024;2022-09-01T09:44:26;461.70;2380.80
53368;DHT22;39271;45.618;20.024;2022-09-01T09:46:54;461.70;2380.80
53368;DHT22;39271;45.618;20.024;2022-09-01T09:49:20;486.50;2380.80
53368;DHT22;39271;45.618;20.024;2022-09-01T09:51:53;486.40;2380.80
53368;DHT22;39271;45.618;20.024;2022-09-01T09:54:23;486.50;2380.80
53368;DHT22;39271;45.618;20.024;2022-09-01T09:57:01;486.60;2380.80
53368;DHT22;39271;45.618;20.024;2022-09-01T09:59:32;486.50;2380.80
53368;DHT22;39271;45.618;20.024;2022-09-01T10:01:58;486.80;2380.80
53368;DHT22;39271;45.618;20.024;2022-09-01T10:04:33;486.80;2380.80
53368;DHT22;39271;45.618;20.024;2022-09-01T10:06:58;486.80;2380.80
53368;DHT22;39271;45.618;20.024;2022-09-01T10:11:51;487.00;2380.80
53368;DHT22;39271;45.618;20.024;2022-09-01T10:14:22;487.00;2380.80
53368;DHT22;39271;45.618;20.024;2022-09-01T10:16:53;487.00;2380.80
53368;DHT22;39271;45.618;20.024;2022-09-01T10:19:21;487.10;2380.80
53368;DHT22;39271;45.618;20.024;2022-09-01T10:21:46;487.20;2380.80
53368;DHT22;39271;45.618;20.024;2022-09-01T10:26:41;512.10;2380.80
53368;DHT22;39271;45.618;20.024;2022-09-01T10:31:39;512.00;2380.80
53368;DHT22;39271;45.618;20.024;2022-09-01T10:34:05;512.00;2380.80
53368;DHT22;39271;45.618;20.024;2022-09-01T10:36:32;512.10;2380.80
53368;DHT22;39271;45.618;20.024;2022-09-01T10:38:59;512.20;2380.80
53368;DHT22;39271;45.618;20.024;2022-09-01T10:44:10;512.60;2380.80
53368;DHT22;39271;45.618;20.024;2022-09-01T10:49:01;512.90;2380.80
53368;DHT22;39271;45.618;20.024;2022-09-01T10:51:40;537.60;2406.40
53368;DHT22;39271;45.618;20.024;2022-09-01T10:54:07;537.60;2406.40
53368;DHT22;39271;45.618;20.024;2022-09-01T10:56:40;537.70;2406.40
53368;DHT22;39271;45.618;20.024;2022-09-01T10:59:10;537.80;2380.80
53368;DHT22;39271;45.618;20.024;2022-09-01T11:09:32;538.10;2278.40
53368;DHT22;39271;45.618;20.024;2022-09-01T11:14:48;538.10;2278.40
53368;DHT22;39271;45.618;20.024;2022-09-01T11:17:18;538.00;2227.20
53368;DHT22;39271;45.618;20.024;2022-09-01T11:27:12;538.10;2252.80
53368;DHT22;39271;45.618;20.024;2022-09-01T11:32:32;538.10;2252.80
53368;DHT22;39271;45.618;20.024;2022-09-01T11:34:59;538.00;2278.40
53368;DHT22;39271;45.618;20.024;2022-09-01T11:37:26;537.90;2304.00
53368;DHT22;39271;45.618;20.024;2022-09-01T11:39:57;537.90;2252.80
53368;DHT22;39271;45.618;20.024;2022-09-01T11:42:39;537.80;2304.00
53368;DHT22;39271;45.618;20.024;2022-09-01T11:45:17;537.80;2304.00
53368;DHT22;39271;45.618;20.024;2022-09-01T11:48:05;537.80;2304.00
53368;DHT22;39271;45.618;20.024;2022-09-01T11:50:33;537.80;2329.60
53368;DHT22;39271;45.618;20.024;2022-09-01T11:53:00;537.70;2304.00
53368;DHT22;39271;45.618;20.024;2022-09-01T11:55:49;537.60;2329.60
53368;DHT22;39271;45.618;20.024;2022-09-01T12:00:52;537.60;2355.20
53368;DHT22;39271;45.618;20.024;2022-09-01T12:03:28;512.80;2304.00
53368;DHT22;39271;45.618;20.024;2022-09-01T12:05:58;512.90;2304.00
53368;DHT22;39271;45.618;20.024;2022-09-01T12:08:26;512.80;2304.00
53368;DHT22;39271;45.618;20.024;2022-09-01T12:11:04;512.80;2252.80
53368;DHT22;39271;45.618;20.024;2022-09-01T12:13:30;512.70;2227.20
53368;DHT22;39271;45.618;20.024;2022-09-01T12:15:58;512.60;2278.40
53368;DHT22;39271;45.618;20.024;2022-09-01T12:18:25;512.50;2227.20
53368;DHT22;39271;45.618;20.024;2022-09-01T12:20:53;512.50;2227.20
53368;DHT22;39271;45.618;20.024;2022-09-01T12:23:24;512.50;2252.80
53368;DHT22;39271;45.618;20.024;2022-09-01T12:25:51;512.50;2227.20
53368;DHT22;39271;45.618;20.024;2022-09-01T12:28:17;512.50;2227.20
53368;DHT22;39271;45.618;20.024;2022-09-01T12:30:43;512.50;2227.20
53368;DHT22;39271;45.618;20.024;2022-09-01T12:33:09;512.50;2227.20
53368;DHT22;39271;45.618;20.024;2022-09-01T12:35:35;512.40;2227.20
53368;DHT22;39271;45.618;20.024;2022-09-01T12:40:45;512.50;2227.20
53368;DHT22;39271;45.618;20.024;2022-09-01T12:43:25;512.40;2201.60
53368;DHT22;39271;45.618;20.024;2022-09-01T12:45:51;512.40;2176.00
53368;DHT22;39271;45.618;20.024;2022-09-01T12:48:25;512.60;2227.20
53368;DHT22;39271;45.618;20.024;2022-09-01T12:50:53;512.60;2176.00
53368;DHT22;39271;45.618;20.024;2022-09-01T12:53:19;512.80;2176.00
53368;DHT22;39271;45.618;20.024;2022-09-01T12:58:50;512.90;2201.60
53368;DHT22;39271;45.618;20.024;2022-09-01T13:01:28;512.90;2150.40
53368;DHT22;39271;45.618;20.024;2022-09-01T13:06:35;537.80;2176.00
53368;DHT22;39271;45.618;20.024;2022-09-01T13:09:02;537.70;2150.40
53368;DHT22;39271;45.618;20.024;2022-09-01T13:11:27;537.60;2150.40
53368;DHT22;39271;45.618;20.024;2022-09-01T13:13:53;512.90;2176.00
53368;DHT22;39271;45.618;20.024;2022-09-01T13:16:18;512.80;2124.80
53368;DHT22;39271;45.618;20.024;2022-09-01T13:18:44;512.80;2124.80
53368;DHT22;39271;45.618;20.024;2022-09-01T13:21:10;512.80;2150.40
53368;DHT22;39271;45.618;20.024;2022-09-01T13:23:36;512.90;2124.80
53368;DHT22;39271;45.618;20.024;2022-09-01T13:26:02;512.80;2124.80
53368;DHT22;39271;45.618;20.024;2022-09-01T13:28:29;512.80;2099.20
53368;DHT22;39271;45.618;20.024;2022-09-01T13:30:59;512.80;2150.40
53368;DHT22;39271;45.618;20.024;2022-09-01T13:33:25;512.90;2124.80
53368;DHT22;39271;45.618;20.024;2022-09-01T13:35:51;512.90;2099.20
53368;DHT22;39271;45.618;20.024;2022-09-01T13:38:17;512.80;2073.60
53368;DHT22;39271;45.618;20.024;2022-09-01T13:40:43;512.80;2150.40
53368;DHT22;39271;45.618;20.024;2022-09-01T13:43:10;512.80;2150.40
53368;DHT22;39271;45.618;20.024;2022-09-01T13:45:36;512.90;2124.80
53368;DHT22;39271;45.618;20.024;2022-09-01T13:48:04;512.80;2124.80
53368;DHT22;39271;45.618;20.024;2022-09-01T13:50:29;512.70;2124.80
53368;DHT22;39271;45.618;20.024;2022-09-01T13:52:55;512.80;2124.80
53368;DHT22;39271;45.618;20.024;2022-09-01T13:55:23;512.80;2099.20
53368;DHT22;39271;45.618;20.024;2022-09-01T13:57:49;512.70;2124.80
53368;DHT22;39271;45.618;20.024;2022-09-01T14:00:15;512.80;2150.40
53368;DHT22;39271;45.618;20.024;2022-09-01T14:02:43;512.90;2150.40
53368;DHT22;39271;45.618;20.024;2022-09-01T14:05:24;512.90;2124.80
53368;DHT22;39271;45.618;20.024;2022-09-01T14:07:50;537.60;2176.00
53368;DHT22;39271;45.618;20.024;2022-09-01T14:10:16;512.90;2099.20
53368;DHT22;39271;45.618;20.024;2022-09-01T14:12:42;537.60;2150.40
53368;DHT22;39271;45.618;20.024;2022-09-01T14:15:08;537.70;2124.80
53368;DHT22;39271;45.618;20.024;2022-09-01T14:17:35;537.70;2124.80
53368;DHT22;39271;45.618;20.024;2022-09-01T14:20:01;537.70;2150.40
53368;DHT22;39271;45.618;20.024;2022-09-01T14:22:26;537.70;2124.80
53368;DHT22;39271;45.618;20.024;2022-09-01T14:24:52;537.70;2150.40
53368;DHT22;39271;45.618;20.024;2022-09-01T14:27:17;537.80;2099.20
53368;DHT22;39271;45.618;20.024;2022-09-01T14:29:47;537.70;2099.20
53368;DHT22;39271;45.618;20.024;2022-09-01T14:32:12;537.60;2099.20
53368;DHT22;39271;45.618;20.024;2022-09-01T14:34:38;512.90;2073.60
53368;DHT22;39271;45.618;20.024;2022-09-01T14:37:03;512.90;2099.20
53368;DHT22;39271;45.618;20.024;2022-09-01T14:39:29;512.90;2099.20
53368;DHT22;39271;45.618;20.024;2022-09-01T14:41:55;537.60;2099.20
53368;DHT22;39271;45.618;20.024;2022-09-01T14:44:21;537.70;2124.80
53368;DHT22;39271;45.618;20.024;2022-09-01T14:46:47;537.70;2099.20
53368;DHT22;39271;45.618;20.024;2022-09-01T14:49:13;537.80;2124.80
53368;DHT22;39271;45.618;20.024;2022-09-01T14:51:40;537.80;2073.60
53368;DHT22;39271;45.618;20.024;2022-09-01T14:54:06;537.90;2073.60
53368;DHT22;39271;45.618;20.024;2022-09-01T14:56:31;537.80;2022.40
53368;DHT22;39271;45.618;20.024;2022-09-01T14:58:57;537.80;2022.40
53368;DHT22;39271;45.618;20.024;2022-09-01T15:01:25;537.70;2022.40
53368;DHT22;39271;45.618;20.024;2022-09-01T15:03:51;537.70;2022.40
53368;DHT22;39271;45.618;20.024;2022-09-01T15:06:17;537.60;2022.40
53368;DHT22;39271;45.618;20.024;2022-09-01T15:08:44;537.70;2048.00
53368;DHT22;39271;45.618;20.024;2022-09-01T15:11:11;537.60;2073.60
53368;DHT22;39271;45.618;20.024;2022-09-01T15:13:36;537.70;2048.00
53368;DHT22;39271;45.618;20.024;2022-09-01T15:16:02;537.60;2073.60
53368;DHT22;39271;45.618;20.024;2022-09-01T15:18:29;537.60;2099.20
53368;DHT22;39271;45.618;20.024;2022-09-01T15:20:54;512.90;2048.00
53368;DHT22;39271;45.618;20.024;2022-09-01T15:23:21;512.90;2048.00
53368;DHT22;39271;45.618;20.024;2022-09-01T15:25:48;512.90;2073.60
53368;DHT22;39271;45.618;20.024;2022-09-01T15:28:14;512.90;2073.60
53368;DHT22;39271;45.618;20.024;2022-09-01T15:30:40;512.90;2048.00
53368;DHT22;39271;45.618;20.024;2022-09-01T15:33:07;537.60;2124.80
53368;DHT22;39271;45.618;20.024;2022-09-01T15:35:33;512.90;2099.20
53368;DHT22;39271;45.618;20.024;2022-09-01T15:37:58;537.60;2099.20
53368;DHT22;39271;45.618;20.024;2022-09-01T15:40:24;537.60;2099.20
53368;DHT22;39271;45.618;20.024;2022-09-01T15:42:51;537.60;2073.60
53368;DHT22;39271;45.618;20.024;2022-09-01T15:45:17;537.60;2073.60
53368;DHT22;39271;45.618;20.024;2022-09-01T15:47:43;537.60;2073.60
53368;DHT22;39271;45.618;20.024;2022-09-01T15:50:10;512.80;2048.00
53368;DHT22;39271;45.618;20.024;2022-09-01T15:52:45;537.70;2099.20
53368;DHT22;39271;45.618;20.024;2022-09-01T15:55:12;537.70;2073.60
53368;DHT22;39271;45.618;20.024;2022-09-01T15:57:37;537.70;2073.60
53368;DHT22;39271;45.618;20.024;2022-09-01T16:00:03;537.70;2073.60
53368;DHT22;39271;45.618;20.024;2022-09-01T16:02:30;512.80;2073.60
53368;DHT22;39271;45.618;20.024;2022-09-01T16:04:55;537.70;2099.20
53368;DHT22;39271;45.618;20.024;2022-09-01T16:07:21;537.70;2099.20
53368;DHT22;39271;45.618;20.024;2022-09-01T16:09:47;537.60;2073.60
53368;DHT22;39271;45.618;20.024;2022-09-01T16:12:12;537.70;2099.20
53368;DHT22;39271;45.618;20.024;2022-09-01T16:14:38;537.70;2099.20
53368;DHT22;39271;45.618;20.024;2022-09-01T16:17:08;537.70;2124.80
53368;DHT22;39271;45.618;20.024;2022-09-01T16:24:27;537.70;2124.80
53368;DHT22;39271;45.618;20.024;2022-09-01T16:26:53;537.70;2099.20
53368;DHT22;39271;45.618;20.024;2022-09-01T16:29:28;537.60;2099.20
53368;DHT22;39271;45.618;20.024;2022-09-01T16:31:56;512.90;2099.20
53368;DHT22;39271;45.618;20.024;2022-09-01T16:34:22;537.60;2124.80